createdAt,value
2022-08-07T00:02:35.340Z,55.10
2022-08-07T00:04:05.880Z,55.20
2022-08-07T00:06:33.886Z,55.20
2022-08-07T00:09:16.114Z,55.30
2022-08-07T00:11:54.442Z,55.30
2022-08-07T00:14:30.028Z,55.40
2022-08-07T00:16:59.873Z,55.60
2022-08-07T00:19:59.723Z,55.70
2022-08-07T00:22:24.782Z,55.70
2022-08-07T00:25:07.511Z,55.80
2022-08-07T00:27:52.796Z,55.90
2022-08-07T00:30:27.506Z,55.90
2022-08-07T00:33:02.672Z,55.90
2022-08-07T00:35:30.507Z,56.00
2022-08-07T00:37:59.072Z,55.90
2022-08-07T00:40:39.352Z,56.00
2022-08-07T00:44:01.246Z,56.00
2022-08-07T00:46:02.310Z,56.00
2022-08-07T00:48:31.997Z,56.10
2022-08-07T00:51:00.272Z,56.10
2022-08-07T00:53:39.349Z,56.10
2022-08-07T00:56:15.718Z,56.20
2022-08-07T00:58:43.915Z,56.30
2022-08-07T01:01:16.042Z,56.60
2022-08-07T01:03:55.571Z,56.80
2022-08-07T01:06:28.472Z,57.00
2022-08-07T01:08:58.411Z,57.10
2022-08-07T01:12:09.747Z,57.20
2022-08-07T01:14:21.354Z,57.20
2022-08-07T01:16:56.033Z,57.10
2022-08-07T01:19:23.462Z,57.10
2022-08-07T01:21:53.328Z,57.10
2022-08-07T01:24:25.370Z,57.10
2022-08-07T01:26:53.969Z,57.10
2022-08-07T01:29:27.639Z,57.10
2022-08-07T01:31:59.861Z,57.20
2022-08-07T01:34:31.780Z,57.30
2022-08-07T01:37:03.047Z,57.60
2022-08-07T01:39:39.509Z,57.70
2022-08-07T01:42:39.753Z,57.90
2022-08-07T01:45:02.568Z,58.10
2022-08-07T01:48:20.801Z,58.30
2022-08-07T01:50:22.719Z,58.40
2022-08-07T01:52:58.722Z,58.40
2022-08-07T01:55:34.332Z,58.50
2022-08-07T01:58:29.311Z,58.70
2022-08-07T02:01:10.361Z,58.70
2022-08-07T02:03:51.980Z,58.80
2022-08-07T02:06:31.838Z,58.90
2022-08-07T02:09:04.799Z,59.00
2022-08-07T02:12:04.111Z,59.20
2022-08-07T02:14:36.102Z,59.40
2022-08-07T02:17:24.771Z,59.50
2022-08-07T02:20:06.781Z,59.60
2022-08-07T02:22:41.200Z,59.80
2022-08-07T02:25:17.628Z,59.90
2022-08-07T02:27:56.802Z,59.90
2022-08-07T02:30:25.715Z,60.10
2022-08-07T02:33:03.710Z,60.20
2022-08-07T02:36:29.723Z,60.20
2022-08-07T02:38:32.205Z,60.10
2022-08-07T02:41:04.322Z,60.10
2022-08-07T02:43:36.058Z,60.00
2022-08-07T02:46:07.399Z,59.90
2022-08-07T02:48:35.993Z,59.80
2022-08-07T02:51:28.866Z,59.70
2022-08-07T02:54:01.059Z,59.90
2022-08-07T02:56:31.660Z,60.00
2022-08-07T02:59:03.951Z,60.00
2022-08-07T03:01:36.649Z,60.10
2022-08-07T03:04:13.988Z,60.10
2022-08-07T03:06:45.791Z,60.30
2022-08-07T03:09:44.721Z,60.50
2022-08-07T03:12:04.248Z,60.70
2022-08-07T03:14:36.254Z,60.70
2022-08-07T03:17:05.092Z,60.60
2022-08-07T03:19:37.211Z,60.80
2022-08-07T03:22:06.989Z,60.90
2022-08-07T03:24:35.129Z,60.90
2022-08-07T03:27:08.983Z,60.90
2022-08-07T03:29:49.627Z,61.00
2022-08-07T03:32:25.604Z,61.00
2022-08-07T03:35:16.918Z,60.90
2022-08-07T03:37:53.555Z,60.90
2022-08-07T03:40:30.785Z,60.80
2022-08-07T03:43:00.702Z,60.80
2022-08-07T03:45:31.253Z,60.70
2022-08-07T03:48:09.977Z,60.70
2022-08-07T03:50:38.844Z,60.70
2022-08-07T03:53:06.925Z,60.80
2022-08-07T03:55:58.208Z,60.80
2022-08-07T03:59:07.335Z,60.80
2022-08-07T04:01:11.647Z,60.70
2022-08-07T04:03:53.780Z,60.90
2022-08-07T04:06:37.886Z,61.00
2022-08-07T04:09:15.863Z,61.10
2022-08-07T04:12:26.331Z,61.10
2022-08-07T04:14:38.946Z,61.10
2022-08-07T04:17:19.979Z,61.20
2022-08-07T04:19:54.656Z,61.40
2022-08-07T04:22:27.474Z,61.40
2022-08-07T04:24:58.137Z,61.40
2022-08-07T04:27:36.184Z,61.40
2022-08-07T04:30:21.519Z,61.30
2022-08-07T04:33:08.393Z,61.30
2022-08-07T04:35:38.547Z,61.30
2022-08-07T04:38:11.499Z,61.30
2022-08-07T04:40:52.892Z,61.20
2022-08-07T04:44:12.928Z,61.20
2022-08-07T04:46:34.769Z,61.50
2022-08-07T04:49:07.527Z,61.90
2022-08-07T04:52:07.315Z,62.10
2022-08-07T04:54:50.534Z,62.30
2022-08-07T04:58:12.233Z,62.50
2022-08-07T05:00:32.415Z,62.70
2022-08-07T05:03:16.901Z,62.60
2022-08-07T05:06:19.834Z,62.50
2022-08-07T05:09:02.418Z,62.70
2022-08-07T05:11:56.939Z,62.80
2022-08-07T05:14:55.702Z,62.80
2022-08-07T05:17:50.842Z,62.70
2022-08-07T05:20:13.421Z,62.70
2022-08-07T05:22:42.701Z,62.80
2022-08-07T05:25:26.307Z,62.90
2022-08-07T05:28:15.913Z,62.80
2022-08-07T05:30:48.017Z,62.90
2022-08-07T05:33:18.053Z,63.00
2022-08-07T05:35:52.865Z,62.90
2022-08-07T05:39:00.519Z,62.80
2022-08-07T05:41:16.780Z,62.60
2022-08-07T05:44:12.333Z,62.50
2022-08-07T05:46:38.346Z,62.30
2022-08-07T05:49:11.814Z,62.10
2022-08-07T05:51:46.483Z,61.90
2022-08-07T05:54:31.329Z,61.70
2022-08-07T05:57:06.578Z,61.40
2022-08-07T05:59:56.074Z,60.80
2022-08-07T06:02:30.633Z,60.40
2022-08-07T06:05:05.667Z,60.10
2022-08-07T06:08:09.334Z,59.80
2022-08-07T06:10:21.997Z,59.50
2022-08-07T06:12:50.040Z,59.30
2022-08-07T06:15:20.060Z,59.20
2022-08-07T06:17:53.439Z,58.90
2022-08-07T06:20:25.220Z,58.50
2022-08-07T06:23:01.795Z,58.40
2022-08-07T06:25:36.919Z,58.20
2022-08-07T06:28:09.301Z,57.90
2022-08-07T06:30:45.633Z,57.70
2022-08-07T06:33:18.619Z,57.50
2022-08-07T06:36:12.454Z,57.30
2022-08-07T06:38:38.490Z,57.10
2022-08-07T06:41:12.957Z,56.90
2022-08-07T06:43:46.558Z,56.60
2022-08-07T06:46:31.345Z,56.50
2022-08-07T06:49:00.294Z,56.40
2022-08-07T06:51:35.384Z,56.50
2022-08-07T06:55:32.525Z,56.50
2022-08-07T06:57:08.149Z,56.40
2022-08-07T07:00:12.758Z,56.20
2022-08-07T07:02:53.725Z,56.20
2022-08-07T07:06:04.323Z,56.10
2022-08-07T07:08:06.451Z,56.00
2022-08-07T07:10:35.901Z,56.00
2022-08-07T07:13:17.197Z,56.00
2022-08-07T07:16:18.052Z,56.00
2022-08-07T07:18:57.414Z,55.90
2022-08-07T07:21:40.266Z,55.70
2022-08-07T07:24:17.548Z,55.60
2022-08-07T07:26:52.094Z,55.50
2022-08-07T07:29:57.196Z,55.30
2022-08-07T07:32:14.336Z,55.20
2022-08-07T07:34:46.620Z,55.30
2022-08-07T07:37:45.367Z,55.00
2022-08-07T07:40:15.204Z,54.90
2022-08-07T07:42:51.275Z,54.80
2022-08-07T07:46:37.635Z,54.70
2022-08-07T07:48:34.724Z,54.40
2022-08-07T07:51:07.911Z,54.30
2022-08-07T07:53:51.256Z,53.90
2022-08-07T07:56:30.602Z,53.70
2022-08-07T07:59:01.960Z,53.50
2022-08-07T08:02:01.962Z,53.40
2022-08-07T08:04:25.655Z,53.30
2022-08-07T08:06:54.276Z,52.90
2022-08-07T08:09:29.460Z,52.70
2022-08-07T08:12:02.907Z,52.40
2022-08-07T08:14:34.527Z,52.10
2022-08-07T08:17:55.385Z,51.40
2022-08-07T08:20:17.116Z,51.40
2022-08-07T08:23:10.144Z,51.10
2022-08-07T08:25:59.700Z,51.00
2022-08-07T08:28:38.732Z,50.70
2022-08-07T08:31:16.442Z,50.10
2022-08-07T08:33:55.787Z,49.90
2022-08-07T08:36:30.413Z,49.50
2022-08-07T08:39:02.264Z,49.50
2022-08-07T08:41:59.493Z,49.70
2022-08-07T08:44:51.007Z,49.00
2022-08-07T08:47:25.255Z,48.60
2022-08-07T08:50:39.529Z,47.80
2022-08-07T08:53:13.700Z,46.60
2022-08-07T08:55:54.868Z,46.40
2022-08-07T08:58:54.362Z,46.40
2022-08-07T09:01:50.641Z,45.90
2022-08-07T09:04:33.721Z,46.10
2022-08-07T09:07:26.717Z,46.60
2022-08-07T09:10:31.418Z,46.70
2022-08-07T09:13:35.332Z,45.90
2022-08-07T09:16:33.426Z,45.80
2022-08-07T09:19:50.587Z,45.10
2022-08-07T09:24:31.110Z,45.00
2022-08-07T09:25:17.588Z,44.50
2022-08-07T09:28:05.120Z,44.40
2022-08-07T09:30:58.275Z,43.70
2022-08-07T09:34:07.969Z,43.20
2022-08-07T09:37:00.585Z,42.40
2022-08-07T09:40:05.073Z,41.90
2022-08-07T09:42:58.677Z,42.10
2022-08-07T09:47:52.378Z,41.80
2022-08-07T09:50:00.407Z,41.30
2022-08-07T09:52:16.325Z,41.90
2022-08-07T09:55:29.440Z,42.20
2022-08-07T09:58:42.249Z,42.10
2022-08-07T10:01:51.391Z,41.40
2022-08-07T10:05:01.299Z,40.40
2022-08-07T10:08:04.478Z,39.90
2022-08-07T10:14:01.475Z,40.40
2022-08-07T10:16:53.340Z,40.10
2022-08-07T10:19:40.308Z,39.70
2022-08-07T10:22:33.315Z,39.90
2022-08-07T10:25:42.178Z,39.50
2022-08-07T10:28:32.956Z,39.20
2022-08-07T10:31:32.250Z,38.70
2022-08-07T10:34:32.047Z,38.80
2022-08-07T10:38:09.580Z,38.80
2022-08-07T10:41:06.408Z,38.50
2022-08-07T10:43:44.042Z,38.50
2022-08-07T10:46:19.499Z,37.20
2022-08-07T10:49:24.701Z,37.00
2022-08-07T10:52:33.936Z,37.20
2022-08-07T10:55:21.170Z,36.90
2022-08-07T10:58:13.654Z,36.40
2022-08-07T11:00:56.000Z,36.60
2022-08-07T11:03:52.804Z,36.30
2022-08-07T11:06:33.770Z,35.90
2022-08-07T11:09:11.325Z,35.40
2022-08-07T11:11:51.790Z,35.40
2022-08-07T11:14:59.879Z,35.00
2022-08-07T11:17:46.311Z,35.00
2022-08-07T11:20:38.064Z,34.90
2022-08-07T11:23:38.954Z,34.90
2022-08-07T11:26:16.877Z,35.00
2022-08-07T11:28:58.765Z,35.30
2022-08-07T11:31:57.793Z,35.00
2022-08-07T11:35:06.736Z,35.00
2022-08-07T11:37:58.348Z,34.40
2022-08-07T11:41:02.129Z,34.40
2022-08-07T11:44:11.327Z,34.20
2022-08-07T11:46:51.379Z,34.10
2022-08-07T11:50:25.181Z,34.00
2022-08-07T11:52:55.965Z,34.10
2022-08-07T11:56:09.481Z,34.30
2022-08-07T11:58:56.251Z,33.90
2022-08-07T12:02:01.190Z,33.80
2022-08-07T12:05:20.794Z,33.50
2022-08-07T12:08:03.983Z,33.50
2022-08-07T12:11:08.458Z,33.10
2022-08-07T12:13:58.112Z,32.60
2022-08-07T12:16:30.413Z,32.20
2022-08-07T12:19:22.180Z,32.20
2022-08-07T12:22:39.445Z,31.80
2022-08-07T12:26:03.310Z,31.50
2022-08-07T12:29:01.003Z,31.70
2022-08-07T12:32:02.220Z,31.90
2022-08-07T12:34:29.891Z,32.00
2022-08-07T12:36:59.330Z,31.60
2022-08-07T12:39:42.807Z,31.80
2022-08-07T12:42:13.070Z,31.80
2022-08-07T12:44:45.341Z,31.90
2022-08-07T12:47:37.511Z,31.70
2022-08-07T12:50:39.372Z,31.40
2022-08-07T12:54:03.336Z,31.20
2022-08-07T12:56:29.186Z,31.50
2022-08-07T12:58:59.591Z,31.50
2022-08-07T13:01:32.017Z,30.80
2022-08-07T13:04:19.025Z,30.70
2022-08-07T13:08:14.184Z,30.70
2022-08-07T13:10:51.753Z,30.10
2022-08-07T13:13:50.087Z,29.80
2022-08-07T13:16:41.891Z,30.30
2022-08-07T13:19:45.754Z,29.70
2022-08-07T13:22:29.983Z,29.80
2022-08-07T13:25:08.477Z,29.80
2022-08-07T13:28:12.433Z,29.80
2022-08-07T13:30:41.335Z,29.60
2022-08-07T13:34:33.578Z,29.80
2022-08-07T13:36:45.392Z,30.50
2022-08-07T13:40:32.707Z,30.00
2022-08-07T13:42:39.136Z,29.50
2022-08-07T13:45:40.632Z,29.80
2022-08-07T13:48:06.515Z,30.10
2022-08-07T13:50:55.650Z,29.90
2022-08-07T13:53:36.077Z,29.50
2022-08-07T13:56:36.389Z,29.50
2022-08-07T13:59:24.450Z,29.80
2022-08-07T14:02:04.149Z,30.00
2022-08-07T14:04:38.128Z,30.50
2022-08-07T14:07:10.119Z,30.90
2022-08-07T14:10:12.080Z,31.00
2022-08-07T14:12:54.127Z,30.90
2022-08-07T14:15:36.986Z,31.00
2022-08-07T14:18:28.910Z,31.00
2022-08-07T14:21:21.250Z,31.70
2022-08-07T14:24:08.909Z,32.10
2022-08-07T14:26:50.649Z,31.90
2022-08-07T14:30:07.579Z,32.00
2022-08-07T14:32:12.470Z,32.30
2022-08-07T14:37:36.105Z,32.40
2022-08-07T14:40:18.193Z,32.80
2022-08-07T14:46:00.702Z,33.20
2022-08-07T14:48:32.641Z,33.80
2022-08-07T14:51:07.292Z,33.90
2022-08-07T14:56:33.674Z,33.70
2022-08-07T15:02:31.860Z,34.20
2022-08-07T15:05:02.155Z,34.70
2022-08-07T15:07:51.347Z,34.70
2022-08-07T15:13:18.096Z,34.90
2022-08-07T15:15:53.455Z,35.20
2022-08-07T15:18:33.825Z,35.30
2022-08-07T15:21:59.562Z,35.30
2022-08-07T15:25:14.673Z,35.50
2022-08-07T15:27:06.507Z,35.60
2022-08-07T15:30:04.694Z,35.50
2022-08-07T15:41:23.552Z,34.30
2022-08-07T15:44:01.024Z,34.40
2022-08-07T15:46:39.207Z,34.20
2022-08-07T15:49:17.369Z,34.40
2022-08-07T15:54:34.027Z,34.40
2022-08-07T15:57:03.349Z,34.10
2022-08-07T15:59:39.898Z,34.00
2022-08-07T16:02:21.346Z,34.40
2022-08-07T16:04:59.559Z,34.60
2022-08-07T16:08:32.924Z,34.60
2022-08-07T16:10:21.880Z,34.30
2022-08-07T16:13:17.941Z,34.90
2022-08-07T16:16:43.025Z,34.70
2022-08-07T16:19:42.049Z,34.40
2022-08-07T16:22:36.377Z,34.50
2022-08-07T16:25:54.534Z,34.90
2022-08-07T16:30:07.298Z,34.80
2022-08-07T16:31:57.623Z,35.20
2022-08-07T16:34:53.570Z,35.60
2022-08-07T16:38:07.100Z,35.60
2022-08-07T16:41:05.540Z,35.50
2022-08-07T16:44:06.489Z,35.50
2022-08-07T16:47:05.523Z,35.40
2022-08-07T16:50:20.545Z,35.70
2022-08-07T16:52:55.610Z,35.80
2022-08-07T16:56:05.522Z,36.00
2022-08-07T16:59:14.724Z,36.20
2022-08-07T17:02:05.183Z,36.70
2022-08-07T17:04:51.081Z,37.10
2022-08-07T17:07:55.899Z,37.40
2022-08-07T17:10:33.782Z,37.60
2022-08-07T17:13:16.057Z,37.70
2022-08-07T17:16:12.109Z,37.70
2022-08-07T17:18:38.989Z,37.90
2022-08-07T17:21:18.907Z,37.90
2022-08-07T17:24:23.810Z,37.90
2022-08-07T17:27:19.680Z,38.30
2022-08-07T17:30:15.158Z,38.60
2022-08-07T17:34:09.757Z,38.90
2022-08-07T17:36:26.032Z,39.20
2022-08-07T17:39:10.337Z,39.60
2022-08-07T17:42:02.374Z,39.80
2022-08-07T17:44:54.584Z,40.00
2022-08-07T17:47:42.145Z,40.40
2022-08-07T17:50:22.712Z,40.80
2022-08-07T17:53:00.529Z,41.00
2022-08-07T17:55:56.590Z,41.20
2022-08-07T17:58:33.080Z,41.40
2022-08-07T18:01:20.606Z,41.70
2022-08-07T18:04:31.246Z,42.00
2022-08-07T18:07:20.063Z,42.20
2022-08-07T18:10:05.675Z,42.40
2022-08-07T18:12:59.416Z,42.60
2022-08-07T18:15:37.646Z,42.80
2022-08-07T18:18:47.542Z,43.00
2022-08-07T18:21:37.300Z,43.20
2022-08-07T18:23:58.965Z,43.40
2022-08-07T18:27:11.457Z,43.30
2022-08-07T18:30:31.818Z,43.50
2022-08-07T18:33:15.840Z,43.70
2022-08-07T18:36:06.076Z,43.70
2022-08-07T18:38:57.910Z,43.80
2022-08-07T18:41:52.987Z,44.00
2022-08-07T18:45:44.695Z,44.10
2022-08-07T18:48:10.522Z,44.20
2022-08-07T18:52:37.410Z,44.30
2022-08-07T18:54:53.872Z,44.50
2022-08-07T18:58:02.520Z,44.60
2022-08-07T19:00:53.764Z,44.70
2022-08-07T19:03:37.466Z,44.90
2022-08-07T19:06:18.230Z,45.00
2022-08-07T19:09:00.096Z,45.30
2022-08-07T19:11:37.380Z,45.40
2022-08-07T19:14:24.185Z,45.50
2022-08-07T19:17:04.320Z,45.60
2022-08-07T19:20:06.717Z,45.70
2022-08-07T19:23:18.354Z,46.00
2022-08-07T19:26:23.973Z,46.10
2022-08-07T19:30:54.780Z,46.20
2022-08-07T19:32:03.441Z,46.30
2022-08-07T19:34:34.363Z,46.50
2022-08-07T19:37:10.259Z,46.80
2022-08-07T19:39:57.907Z,47.00
2022-08-07T19:42:31.012Z,47.10
2022-08-07T19:45:08.488Z,47.20
2022-08-07T19:47:42.190Z,47.40
2022-08-07T19:50:44.414Z,47.40
2022-08-07T19:52:58.693Z,47.60
2022-08-07T19:55:57.925Z,47.70
2022-08-07T19:58:27.921Z,48.00
2022-08-07T20:00:57.050Z,48.20
2022-08-07T20:03:35.752Z,48.30
2022-08-07T20:06:04.636Z,48.50
2022-08-07T20:08:39.379Z,48.60
2022-08-07T20:11:34.314Z,48.70
2022-08-07T20:14:07.283Z,48.80
2022-08-07T20:16:45.470Z,49.00
2022-08-07T20:19:13.709Z,49.20
2022-08-07T20:21:47.346Z,49.40
2022-08-07T20:24:32.879Z,49.60
2022-08-07T20:27:03.151Z,49.90
2022-08-07T20:29:48.883Z,50.00
2022-08-07T20:32:39.828Z,50.30
2022-08-07T20:35:12.600Z,50.70
2022-08-07T20:37:58.277Z,51.00
2022-08-07T20:40:31.622Z,51.20
2022-08-07T20:43:09.599Z,51.30
2022-08-07T20:46:28.047Z,51.40
2022-08-07T20:48:34.469Z,51.40
2022-08-07T20:51:04.269Z,51.70
2022-08-07T20:54:03.637Z,51.90
2022-08-07T20:56:29.097Z,52.10
2022-08-07T20:59:01.316Z,52.20
2022-08-07T21:01:45.245Z,52.30
2022-08-07T21:04:22.755Z,52.40
2022-08-07T21:06:56.617Z,52.30
2022-08-07T21:09:30.066Z,52.30
2022-08-07T21:12:25.923Z,52.40
2022-08-07T21:14:58.613Z,52.40
2022-08-07T21:18:03.234Z,52.60
2022-08-07T21:20:26.451Z,52.70
2022-08-07T21:23:07.653Z,52.70
2022-08-07T21:25:56.898Z,52.70
2022-08-07T21:28:48.544Z,52.90
2022-08-07T21:31:49.741Z,53.10
2022-08-07T21:34:46.282Z,53.50
2022-08-07T21:37:25.864Z,53.60
2022-08-07T21:40:02.163Z,53.70
2022-08-07T21:42:46.580Z,53.60
2022-08-07T21:46:08.776Z,53.60
2022-08-07T21:48:56.437Z,53.80
2022-08-07T21:51:51.744Z,53.90
2022-08-07T21:54:55.409Z,53.90
2022-08-07T21:57:44.876Z,54.00
2022-08-07T22:00:25.163Z,53.90
2022-08-07T22:03:31.486Z,53.80
2022-08-07T22:06:07.590Z,53.80
2022-08-07T22:09:07.883Z,53.80
2022-08-07T22:12:05.071Z,53.90
2022-08-07T22:14:36.556Z,54.00
2022-08-07T22:17:06.351Z,54.30
2022-08-07T22:19:57.422Z,54.30
2022-08-07T22:22:30.478Z,54.50
2022-08-07T22:25:12.713Z,54.40
2022-08-07T22:28:29.662Z,54.60
2022-08-07T22:31:00.556Z,54.60
2022-08-07T22:33:56.593Z,54.70
2022-08-07T22:36:57.927Z,54.80
2022-08-07T22:39:53.111Z,54.90
2022-08-07T22:42:25.999Z,54.80
2022-08-07T22:46:04.047Z,54.80
2022-08-07T22:48:54.731Z,54.80
2022-08-07T22:51:14.980Z,54.90
2022-08-07T22:54:19.609Z,54.90
2022-08-07T22:57:21.137Z,55.20
2022-08-07T22:59:58.690Z,55.10
2022-08-07T23:03:09.149Z,55.10
2022-08-07T23:06:15.518Z,55.20
2022-08-07T23:10:03.514Z,55.40
2022-08-07T23:12:04.965Z,55.50
2022-08-07T23:14:59.451Z,55.50
2022-08-07T23:17:35.988Z,55.80
2022-08-07T23:20:40.719Z,55.80
2022-08-07T23:24:05.534Z,56.00
2022-08-07T23:26:50.068Z,56.00
2022-08-07T23:30:37.670Z,56.00
2022-08-07T23:34:34.604Z,56.10
2022-08-07T23:36:28.833Z,56.00
2022-08-07T23:39:22.054Z,56.00
2022-08-07T23:42:21.655Z,56.10
2022-08-07T23:45:15.142Z,56.00
2022-08-07T23:48:17.108Z,56.10
2022-08-07T23:51:00.730Z,56.10
2022-08-07T23:53:54.249Z,56.20
2022-08-07T23:56:53.973Z,56.30
